Time;durP1;ratioP1;P1;durP2;ratioP2;P2;SDS_P1;SDS_P2;PMS_P1;PMS_P2;Temp;Humidity;BMP_temperature;BMP_pressure;BME280_temperature;BME280_humidity;BME280_pressure;Samples;Min_cycle;Max_cycle;Signal;HPM_P1;HPM_P2
2023/11/20 00:00:12;;;;;;;18.50;2.85;;;9.20;99.90;;;;;;4950598;28;20026;-87
2023/11/20 00:02:42;;;;;;;16.08;2.58;;;9.10;99.90;;;;;;4964090;28;20023;-88
2023/11/20 00:05:11;;;;;;;19.17;2.78;;;9.20;99.90;;;;;;4954183;28;20038;-87
2023/11/20 00:07:37;;;;;;;9.85;2.38;;;9.10;99.90;;;;;;4943730;29;20039;-88
2023/11/20 00:10:05;;;;;;;16.70;2.92;;;9.10;99.90;;;;;;4943483;29;20035;-88
2023/11/20 00:12:32;;;;;;;18.95;2.63;;;9.10;99.90;;;;;;4957215;28;20031;-88
2023/11/20 00:14:58;;;;;;;16.73;2.78;;;9.10;99.90;;;;;;4942105;29;20485;-87
2023/11/20 00:17:24;;;;;;;10.82;2.40;;;9.10;99.90;;;;;;4968488;28;20031;-87
2023/11/20 00:19:50;;;;;;;23.08;4.35;;;9.10;99.90;;;;;;4947055;29;20023;-87
2023/11/20 00:22:16;;;;;;;14.07;2.60;;;9.10;99.90;;;;;;4949423;28;20033;-88
2023/11/20 00:24:44;;;;;;;22.65;3.25;;;9.00;99.90;;;;;;4947011;29;20019;-87
2023/11/20 00:27:10;;;;;;;24.00;3.13;;;9.00;99.90;;;;;;4964997;28;20030;-87
2023/11/20 00:29:37;;;;;;;22.17;2.40;;;9.10;99.90;;;;;;4965141;28;20030;-87
2023/11/20 00:32:03;;;;;;;17.40;2.28;;;9.00;99.90;;;;;;4955986;28;20031;-87
2023/11/20 00:34:29;;;;;;;18.90;2.30;;;9.00;99.90;;;;;;4948319;28;20078;-87
2023/11/20 00:36:55;;;;;;;20.00;4.00;;;9.00;99.90;;;;;;4961067;28;20485;-87
2023/11/20 00:39:21;;;;;;;12.80;2.22;;;9.00;99.90;;;;;;4959980;28;20047;-87
2023/11/20 00:41:48;;;;;;;23.85;2.72;;;9.00;99.90;;;;;;4946879;28;20417;-87
2023/11/20 00:44:13;;;;;;;11.30;2.38;;;9.00;99.90;;;;;;4966660;28;20062;-86
2023/11/20 00:46:40;;;;;;;18.65;2.70;;;9.00;99.90;;;;;;4947606;29;20319;-86
2023/11/20 00:49:05;;;;;;;15.55;2.20;;;9.00;99.90;;;;;;4947452;28;20440;-87
2023/11/20 00:51:32;;;;;;;19.23;2.92;;;9.00;99.90;;;;;;4948156;28;20042;-86
2023/11/20 00:53:58;;;;;;;18.42;2.50;;;9.00;99.90;;;;;;4946195;29;20029;-85
2023/11/20 00:56:25;;;;;;;9.25;1.70;;;9.00;99.90;;;;;;4957016;28;20110;-87
2023/11/20 00:58:50;;;;;;;22.73;2.75;;;9.00;99.90;;;;;;4946156;28;20027;-88
2023/11/20 01:01:16;;;;;;;18.85;2.63;;;9.00;99.90;;;;;;4963309;28;20038;-87
2023/11/20 01:03:43;;;;;;;22.75;2.75;;;9.00;99.90;;;;;;4963333;28;20034;-87
2023/11/20 01:06:09;;;;;;;20.77;2.90;;;9.00;99.90;;;;;;4945986;28;20444;-87
2023/11/20 01:08:35;;;;;;;24.27;2.63;;;9.00;99.90;;;;;;4965439;28;20078;-87
2023/11/20 01:11:01;;;;;;;23.00;3.28;;;8.90;99.90;;;;;;4953687;28;20046;-87
2023/11/20 01:13:27;;;;;;;18.67;2.42;;;8.90;99.90;;;;;;4948622;29;20020;-87
2023/11/20 01:15:53;;;;;;;17.20;2.72;;;8.90;99.90;;;;;;4964027;28;20033;-87
2023/11/20 01:18:19;;;;;;;18.15;2.38;;;8.90;99.90;;;;;;4947578;28;20191;-87
2023/11/20 01:20:45;;;;;;;22.42;2.40;;;8.80;99.90;;;;;;4967114;28;20034;-87
2023/11/20 01:23:11;;;;;;;16.08;2.50;;;8.80;99.90;;;;;;4947364;28;20023;-87
2023/11/20 01:25:37;;;;;;;14.27;2.30;;;8.80;99.90;;;;;;4945473;28;20027;-87
2023/11/20 01:28:04;;;;;;;13.27;2.80;;;8.80;99.90;;;;;;4950631;28;20022;-87
2023/11/20 01:30:29;;;;;;;24.30;3.25;;;8.80;99.90;;;;;;4948159;28;20069;-87
2023/11/20 01:32:55;;;;;;;23.80;2.78;;;8.70;99.90;;;;;;4967586;28;20453;-87
2023/11/20 01:35:22;;;;;;;16.70;2.55;;;8.70;99.90;;;;;;4947340;29;20057;-87
2023/11/20 01:37:48;;;;;;;21.90;2.70;;;8.60;99.90;;;;;;4967365;28;20046;-87
2023/11/20 01:40:14;;;;;;;15.65;1.95;;;8.60;99.90;;;;;;4950992;28;20029;-87
2023/11/20 01:42:40;;;;;;;13.93;2.50;;;8.60;99.90;;;;;;4945137;28;20031;-86
2023/11/20 01:45:08;;;;;;;18.20;2.50;;;8.60;99.90;;;;;;4947525;28;20473;-86
2023/11/20 01:47:38;;;;;;;13.95;2.28;;;8.50;99.90;;;;;;4947056;28;20026;-87
2023/11/20 01:50:15;;;;;;;18.92;2.20;;;8.50;99.90;;;;;;4943737;28;20119;-87
2023/11/20 01:52:44;;;;;;;11.80;1.98;;;8.50;99.90;;;;;;4944970;28;20043;-87
2023/11/20 01:55:11;;;;;;;13.77;1.92;;;8.40;99.90;;;;;;4944044;28;20027;-87
2023/11/20 01:57:41;;;;;;;20.00;2.10;;;8.40;99.90;;;;;;4946734;29;20027;-86
2023/11/20 02:00:09;;;;;;;23.92;2.35;;;8.40;99.90;;;;;;4944076;28;20027;-87
2023/11/20 02:02:39;;;;;;;13.00;2.35;;;8.30;99.90;;;;;;4942269;28;20106;-85
2023/11/20 02:05:06;;;;;;;11.13;2.17;;;8.30;99.90;;;;;;4945375;29;20486;-86
2023/11/20 02:07:36;;;;;;;19.13;2.63;;;8.30;99.90;;;;;;4946514;28;20105;-86
2023/11/20 02:10:03;;;;;;;13.30;2.20;;;8.30;99.90;;;;;;4941436;28;20034;-86
2023/11/20 02:12:29;;;;;;;18.65;2.70;;;8.20;99.90;;;;;;4944406;28;20046;-87
2023/11/20 02:14:55;;;;;;;19.17;2.10;;;8.20;99.90;;;;;;4946575;28;20019;-86
2023/11/20 02:17:21;;;;;;;16.25;2.33;;;8.20;99.90;;;;;;4946424;28;20027;-86
2023/11/20 02:19:50;;;;;;;20.45;2.47;;;8.10;99.90;;;;;;4967880;28;20028;-86
2023/11/20 02:22:16;;;;;;;26.08;2.58;;;8.10;99.90;;;;;;4966819;28;20029;-86
2023/11/20 02:24:46;;;;;;;18.52;2.28;;;8.10;99.90;;;;;;4949493;28;20078;-86
2023/11/20 02:27:32;;;;;;;18.23;2.08;;;8.10;99.90;;;;;;4967892;28;20029;-86
2023/11/20 02:30:00;;;;;;;18.00;2.03;;;8.10;99.90;;;;;;4965006;28;20404;-86
2023/11/20 02:32:28;;;;;;;19.23;2.03;;;8.10;99.90;;;;;;4965059;28;20552;-86
2023/11/20 02:34:54;;;;;;;16.42;2.10;;;8.00;99.90;;;;;;4948074;28;20031;-87
2023/11/20 02:37:19;;;;;;;14.07;2.13;;;8.00;99.90;;;;;;4948380;28;20026;-87
2023/11/20 02:39:51;;;;;;;23.35;2.58;;;8.00;99.90;;;;;;4968218;28;20106;-87
2023/11/20 02:42:18;;;;;;;9.95;2.45;;;8.00;99.90;;;;;;4948320;29;20027;-87
2023/11/20 02:44:45;;;;;;;10.48;1.83;;;8.00;99.90;;;;;;4949546;28;20542;-86
2023/11/20 02:47:11;;;;;;;16.77;2.97;;;8.00;99.90;;;;;;4944800;28;20031;-87
2023/11/20 02:49:37;;;;;;;17.38;2.42;;;8.00;99.90;;;;;;4949761;28;20019;-86
2023/11/20 02:52:05;;;;;;;16.83;2.78;;;8.00;99.90;;;;;;4948840;28;20042;-86
2023/11/20 02:54:31;;;;;;;12.15;2.28;;;8.00;99.90;;;;;;4947342;28;20642;-86
2023/11/20 02:56:57;;;;;;;14.73;2.83;;;8.00;99.90;;;;;;4949593;28;20069;-86
2023/11/20 02:59:23;;;;;;;21.83;3.00;;;8.00;99.90;;;;;;4949901;28;20051;-86
2023/11/20 03:01:49;;;;;;;14.65;2.70;;;8.00;99.90;;;;;;4964391;28;20035;-85
2023/11/20 03:04:16;;;;;;;12.10;1.85;;;8.00;99.90;;;;;;4948719;29;20023;-86
2023/11/20 03:06:41;;;;;;;9.82;2.00;;;8.00;99.90;;;;;;4965120;28;20058;-85
2023/11/20 03:09:07;;;;;;;21.70;2.45;;;8.00;99.90;;;;;;4949377;28;20058;-86
2023/11/20 03:11:33;;;;;;;19.80;2.33;;;8.00;99.90;;;;;;4963962;28;20046;-86
2023/11/20 03:14:00;;;;;;;14.57;1.95;;;7.90;99.90;;;;;;4947052;28;20032;-86
2023/11/20 03:16:25;;;;;;;24.88;2.70;;;7.90;99.90;;;;;;4947405;28;20026;-86
2023/11/20 03:18:51;;;;;;;21.27;2.90;;;7.90;99.90;;;;;;4966118;28;20028;-87
2023/11/20 03:21:17;;;;;;;18.25;2.42;;;7.90;99.90;;;;;;4948420;28;20022;-87
2023/11/20 03:23:43;;;;;;;11.85;1.85;;;7.80;99.90;;;;;;4948184;28;20032;-86
2023/11/20 03:26:08;;;;;;;18.27;2.00;;;7.80;99.90;;;;;;4948720;28;20542;-86
2023/11/20 03:28:36;;;;;;;17.65;2.15;;;7.90;99.90;;;;;;4948771;28;20022;-87
2023/11/20 03:31:02;;;;;;;15.02;1.83;;;7.90;99.90;;;;;;4948333;28;20121;-87
2023/11/20 03:33:28;;;;;;;26.70;2.55;;;7.90;99.90;;;;;;4946040;28;20437;-87
2023/11/20 03:35:53;;;;;;;13.38;2.05;;;7.90;99.90;;;;;;4951776;28;20026;-87
2023/11/20 03:38:19;;;;;;;19.10;3.00;;;8.00;99.90;;;;;;4963761;28;20030;-88
2023/11/20 03:40:45;;;;;;;21.10;3.05;;;8.00;99.90;;;;;;4947435;28;20473;-87
2023/11/20 03:43:10;;;;;;;15.52;2.85;;;8.00;99.90;;;;;;4945821;28;20122;-87
2023/11/20 03:45:36;;;;;;;16.85;3.67;;;8.00;99.90;;;;;;4943678;29;20096;-87
2023/11/20 03:48:02;;;;;;;25.77;4.10;;;8.00;99.90;;;;;;4953151;28;20031;-86
2023/11/20 03:50:27;;;;;;;26.88;3.97;;;8.00;99.90;;;;;;4946916;28;20037;-86
2023/11/20 03:52:53;;;;;;;16.45;2.58;;;8.00;99.90;;;;;;4966050;28;20043;-87
2023/11/20 03:55:19;;;;;;;14.75;2.45;;;8.00;99.90;;;;;;4946892;28;20018;-86
2023/11/20 03:57:48;;;;;;;19.50;2.58;;;8.00;99.90;;;;;;4946207;28;20069;-87
2023/11/20 04:00:14;;;;;;;20.63;3.28;;;8.00;99.90;;;;;;4947014;28;20101;-87
2023/11/20 04:02:41;;;;;;;21.10;2.75;;;8.00;99.90;;;;;;4947119;28;20038;-87
2023/11/20 04:05:09;;;;;;;11.55;2.03;;;8.00;99.90;;;;;;4963956;28;20125;-87
2023/11/20 04:07:34;;;;;;;22.95;2.30;;;8.00;99.90;;;;;;4948439;29;20058;-87
2023/11/20 04:10:00;;;;;;;25.00;2.58;;;8.00;99.90;;;;;;4945648;28;20671;-87
2023/11/20 04:12:28;;;;;;;5.07;1.95;;;8.00;99.90;;;;;;4947587;28;20027;-86
2023/11/20 04:14:53;;;;;;;18.55;2.70;;;8.00;99.90;;;;;;4946127;28;20026;-86
2023/11/20 04:17:20;;;;;;;19.10;2.42;;;8.00;99.90;;;;;;4945865;28;20023;-86
2023/11/20 04:19:46;;;;;;;26.98;4.03;;;8.00;99.90;;;;;;4965831;28;20110;-87
2023/11/20 04:22:11;;;;;;;20.50;2.80;;;8.00;99.90;;;;;;4946087;28;20118;-86
2023/11/20 04:24:38;;;;;;;19.17;3.10;;;8.00;99.90;;;;;;4947717;28;20022;-86
2023/11/20 04:27:04;;;;;;;20.85;2.67;;;8.00;99.90;;;;;;4947060;28;20037;-87
2023/11/20 04:29:30;;;;;;;16.60;2.63;;;8.00;99.90;;;;;;4965857;28;20030;-86
2023/11/20 04:31:56;;;;;;;17.67;2.90;;;8.00;99.90;;;;;;4966518;28;20458;-87
2023/11/20 04:34:22;;;;;;;28.05;3.47;;;8.00;99.90;;;;;;4946412;28;20548;-86
2023/11/20 04:36:50;;;;;;;17.55;3.85;;;8.00;99.90;;;;;;4957211;28;20046;-86
2023/11/20 04:39:17;;;;;;;18.85;2.97;;;8.00;99.90;;;;;;4954103;28;20038;-87
2023/11/20 04:41:42;;;;;;;24.48;3.35;;;8.00;99.90;;;;;;4965208;28;20030;-86
2023/11/20 04:44:08;;;;;;;24.77;3.05;;;8.00;99.90;;;;;;4954119;28;20451;-86
2023/11/20 04:46:34;;;;;;;21.45;3.30;;;8.00;99.90;;;;;;4963827;28;20035;-87
2023/11/20 04:49:00;;;;;;;18.20;2.78;;;8.00;99.90;;;;;;4952969;28;20115;-86
2023/11/20 04:51:25;;;;;;;21.83;3.38;;;8.00;99.90;;;;;;4942116;29;20046;-87
2023/11/20 04:53:51;;;;;;;22.00;3.00;;;7.90;99.90;;;;;;4948375;28;20023;-86
2023/11/20 04:56:18;;;;;;;16.00;3.22;;;7.90;99.90;;;;;;4942785;29;20031;-87
2023/11/20 04:58:46;;;;;;;22.98;4.38;;;7.90;99.90;;;;;;4938207;29;20028;-87
2023/11/20 05:01:13;;;;;;;15.13;2.47;;;7.90;99.90;;;;;;4948214;29;20385;-87
2023/11/20 05:03:40;;;;;;;20.65;3.00;;;7.90;99.90;;;;;;4946816;28;20015;-87
2023/11/20 05:06:10;;;;;;;25.88;3.35;;;7.90;99.90;;;;;;4951110;28;20090;-87
2023/11/20 05:08:36;;;;;;;9.88;2.10;;;7.90;99.90;;;;;;4966024;28;20059;-87
2023/11/20 05:11:02;;;;;;;10.73;2.10;;;7.90;99.90;;;;;;4949866;28;20070;-86
2023/11/20 05:13:28;;;;;;;26.60;3.65;;;7.90;99.90;;;;;;4953413;28;20027;-87
2023/11/20 05:15:54;;;;;;;19.70;2.47;;;7.80;99.90;;;;;;4948217;29;20507;-86
2023/11/20 05:18:20;;;;;;;20.50;2.55;;;7.80;99.90;;;;;;4946789;28;20069;-88
2023/11/20 05:20:46;;;;;;;15.95;3.08;;;7.80;99.90;;;;;;4948687;28;20545;-86
2023/11/20 05:23:12;;;;;;;19.65;2.90;;;7.80;99.90;;;;;;4951210;29;20031;-86
2023/11/20 05:25:37;;;;;;;18.05;2.80;;;7.80;99.90;;;;;;4940544;28;20370;-87
2023/11/20 05:28:03;;;;;;;23.40;3.00;;;7.80;99.90;;;;;;4946655;28;20045;-88
2023/11/20 05:30:30;;;;;;;18.33;2.95;;;7.80;99.90;;;;;;4937454;29;20027;-86
2023/11/20 05:32:56;;;;;;;14.77;2.35;;;7.80;99.90;;;;;;4945225;28;20031;-87
2023/11/20 05:35:22;;;;;;;19.65;2.70;;;7.80;99.90;;;;;;4948980;28;20136;-87
2023/11/20 05:37:48;;;;;;;12.77;2.15;;;7.80;99.90;;;;;;4959996;28;20028;-87
2023/11/20 05:40:14;;;;;;;17.92;2.83;;;7.80;99.90;;;;;;4945521;28;20118;-87
2023/11/20 05:42:40;;;;;;;12.27;2.00;;;7.80;99.90;;;;;;4944136;29;20470;-87
2023/11/20 05:45:07;;;;;;;20.02;2.55;;;7.80;99.90;;;;;;4941746;29;20023;-87
2023/11/20 05:47:33;;;;;;;27.17;2.88;;;7.80;99.90;;;;;;4942210;28;20034;-86
2023/11/20 05:49:58;;;;;;;18.65;2.53;;;7.80;99.90;;;;;;4966624;28;20027;-87
2023/11/20 05:52:25;;;;;;;18.55;2.30;;;7.80;99.90;;;;;;4946996;28;20110;-86
2023/11/20 05:54:52;;;;;;;13.40;2.70;;;7.80;99.90;;;;;;4951003;28;20035;-87
2023/11/20 05:57:17;;;;;;;17.10;2.58;;;7.80;99.90;;;;;;4950213;28;20035;-87
2023/11/20 05:59:46;;;;;;;12.70;2.08;;;7.80;99.90;;;;;;4967581;28;20030;-86
2023/11/20 06:02:12;;;;;;;15.30;2.63;;;7.90;99.90;;;;;;4950771;28;20027;-87
2023/11/20 06:04:38;;;;;;;11.20;2.45;;;7.90;99.90;;;;;;4950014;28;20078;-87
2023/11/20 06:07:03;;;;;;;22.08;2.67;;;7.90;99.90;;;;;;4949917;28;20049;-86
2023/11/20 06:09:30;;;;;;;17.38;2.83;;;7.90;99.90;;;;;;4947709;28;20034;-87
2023/11/20 06:11:55;;;;;;;24.08;2.30;;;7.90;99.90;;;;;;4950223;28;20464;-87
2023/11/20 06:14:21;;;;;;;18.20;2.58;;;7.90;99.90;;;;;;4948595;28;20110;-86
2023/11/20 06:16:47;;;;;;;18.38;2.55;;;8.00;99.90;;;;;;4948666;28;20097;-87
2023/11/20 06:19:13;;;;;;;15.82;3.40;;;8.00;99.90;;;;;;4947194;28;20035;-86
2023/11/20 06:21:49;;;;;;;10.38;1.80;;;8.00;99.90;;;;;;4948192;28;20019;-86
2023/11/20 06:24:16;;;;;;;13.38;2.17;;;8.00;99.90;;;;;;4968124;28;20114;-86
2023/11/20 06:26:42;;;;;;;21.25;3.47;;;8.00;99.90;;;;;;4949039;28;20033;-87
2023/11/20 06:29:09;;;;;;;18.90;2.20;;;8.00;99.90;;;;;;4949439;28;20054;-87
2023/11/20 06:31:35;;;;;;;12.02;1.92;;;8.00;99.90;;;;;;4945009;28;20031;-87
2023/11/20 06:34:01;;;;;;;15.05;3.22;;;8.00;99.90;;;;;;4949059;28;20033;-86
2023/11/20 06:36:27;;;;;;;9.63;2.17;;;8.00;99.90;;;;;;4949391;28;20031;-86
2023/11/20 06:38:53;;;;;;;14.25;1.58;;;8.00;99.90;;;;;;4949785;28;20110;-88
2023/11/20 06:41:23;;;;;;;8.85;1.58;;;8.00;99.90;;;;;;4947162;28;20027;-86
2023/11/20 06:43:48;;;;;;;8.48;1.45;;;8.00;99.90;;;;;;4964077;28;20039;-86
2023/11/20 06:46:22;;;;;;;15.85;1.60;;;8.00;99.90;;;;;;4946882;28;20024;-86
2023/11/20 06:48:48;;;;;;;11.52;1.60;;;8.00;99.90;;;;;;4948056;29;20121;-87
2023/11/20 06:51:17;;;;;;;7.70;1.70;;;8.00;99.90;;;;;;4948512;28;20118;-86
2023/11/20 06:53:45;;;;;;;9.27;1.60;;;8.00;99.90;;;;;;4945637;28;20085;-85
2023/11/20 06:56:23;;;;;;;13.52;2.30;;;8.00;99.90;;;;;;4946813;28;20030;-87
2023/11/20 06:58:49;;;;;;;16.08;1.60;;;8.00;99.90;;;;;;4946752;28;20034;-87
2023/11/20 07:01:17;;;;;;;13.00;1.55;;;8.00;99.90;;;;;;4945677;28;20027;-87
2023/11/20 07:03:43;;;;;;;11.10;1.48;;;8.00;99.90;;;;;;4935326;28;20047;-86
2023/11/20 07:06:17;;;;;;;7.75;1.48;;;8.00;99.90;;;;;;4963878;28;20035;-86
2023/11/20 07:08:43;;;;;;;13.65;1.65;;;8.00;99.90;;;;;;4949020;28;20050;-86
2023/11/20 07:11:09;;;;;;;11.43;1.85;;;8.10;99.90;;;;;;4952847;28;20113;-86
2023/11/20 07:13:34;;;;;;;9.15;1.45;;;8.10;99.90;;;;;;4944796;28;20436;-87
2023/11/20 07:16:01;;;;;;;10.82;2.20;;;8.10;99.90;;;;;;4943469;28;20026;-87
2023/11/20 07:18:31;;;;;;;12.10;2.13;;;8.00;99.90;;;;;;4948107;28;20031;-87
2023/11/20 07:21:03;;;;;;;17.92;2.42;;;8.10;99.90;;;;;;4961193;28;20038;-88
2023/11/20 07:23:32;;;;;;;10.13;1.70;;;8.00;99.90;;;;;;4945096;28;20090;-86
2023/11/20 07:25:57;;;;;;;13.10;1.88;;;8.00;99.90;;;;;;4942434;28;20033;-87
2023/11/20 07:28:23;;;;;;;8.10;1.48;;;8.00;99.90;;;;;;4950377;28;20473;-87
2023/11/20 07:30:49;;;;;;;15.27;1.85;;;8.00;99.90;;;;;;4953285;28;20127;-87
2023/11/20 07:33:15;;;;;;;6.25;1.60;;;8.00;99.90;;;;;;4943401;28;20034;-86
2023/11/20 07:35:41;;;;;;;8.20;2.17;;;8.00;99.90;;;;;;4950706;28;20729;-87
2023/11/20 07:38:06;;;;;;;10.38;1.55;;;7.90;99.90;;;;;;4944288;28;20037;-87
2023/11/20 07:40:32;;;;;;;9.35;1.92;;;8.00;99.90;;;;;;4948482;28;20134;-87
2023/11/20 07:42:58;;;;;;;6.97;1.60;;;7.90;99.90;;;;;;4953130;28;20055;-87
2023/11/20 07:45:24;;;;;;;9.90;2.40;;;8.00;99.90;;;;;;4952181;28;20030;-86
2023/11/20 07:47:50;;;;;;;9.50;2.20;;;8.00;99.90;;;;;;4946660;28;20027;-86
2023/11/20 07:50:15;;;;;;;12.93;2.45;;;8.00;99.90;;;;;;4948035;28;20035;-87
2023/11/20 07:52:44;;;;;;;13.15;2.40;;;8.00;99.90;;;;;;4949162;28;20031;-87
2023/11/20 07:55:11;;;;;;;16.40;3.45;;;8.00;99.90;;;;;;4948078;28;20090;-86
2023/11/20 07:57:37;;;;;;;14.27;2.53;;;8.00;99.90;;;;;;4948593;28;20042;-87
2023/11/20 08:00:05;;;;;;;13.50;3.08;;;8.10;99.90;;;;;;4963164;28;20023;-86
2023/11/20 08:02:31;;;;;;;11.85;3.35;;;8.10;99.90;;;;;;4953610;28;20037;-89
2023/11/20 08:04:58;;;;;;;13.40;3.42;;;8.10;99.90;;;;;;4965431;28;20031;-86
2023/11/20 08:07:25;;;;;;;13.82;3.38;;;8.10;99.90;;;;;;4950806;28;20081;-87
2023/11/20 08:09:51;;;;;;;13.82;3.45;;;8.10;99.90;;;;;;4947049;28;20496;-88
2023/11/20 08:12:17;;;;;;;33.42;5.13;;;8.10;99.90;;;;;;4941253;28;20058;-89
2023/11/20 08:14:42;;;;;;;21.17;4.07;;;8.10;99.90;;;;;;4967004;28;20082;-87
2023/11/20 08:17:08;;;;;;;17.30;3.65;;;8.00;99.90;;;;;;4948607;28;20035;-87
2023/11/20 08:19:34;;;;;;;16.80;3.88;;;8.10;99.90;;;;;;4943876;28;20014;-87
2023/11/20 08:22:04;;;;;;;14.98;3.17;;;8.10;99.90;;;;;;4945408;28;20476;-88
2023/11/20 08:24:31;;;;;;;18.23;3.97;;;8.10;99.90;;;;;;4946314;28;20023;-87
2023/11/20 08:26:57;;;;;;;16.67;3.05;;;8.10;99.90;;;;;;4966630;28;20025;-87
2023/11/20 08:29:24;;;;;;;11.55;3.60;;;8.10;99.90;;;;;;4945219;29;20117;-87
2023/11/20 08:31:50;;;;;;;14.05;4.10;;;8.10;99.90;;;;;;4944566;28;20393;-86
2023/11/20 08:34:17;;;;;;;20.40;5.15;;;8.10;99.90;;;;;;4950976;28;20019;-87
2023/11/20 08:36:44;;;;;;;18.08;5.75;;;8.10;99.90;;;;;;4957132;28;20027;-87
2023/11/20 08:39:14;;;;;;;16.73;5.70;;;8.10;99.90;;;;;;4956767;28;20027;-86
2023/11/20 08:41:40;;;;;;;24.80;7.25;;;8.20;99.90;;;;;;4957000;28;20551;-87
2023/11/20 08:44:07;;;;;;;23.98;7.65;;;8.20;99.90;;;;;;4957048;28;20035;-87
2023/11/20 08:46:34;;;;;;;28.83;7.50;;;8.20;99.90;;;;;;4955282;28;20027;-88
2023/11/20 08:49:00;;;;;;;18.75;7.57;;;8.30;99.90;;;;;;4949327;28;20543;-87
2023/11/20 08:51:27;;;;;;;21.65;7.80;;;8.30;99.90;;;;;;4947359;28;20034;-87
2023/11/20 08:53:53;;;;;;;24.90;7.32;;;8.30;99.90;;;;;;4954437;28;20476;-86
2023/11/20 08:56:18;;;;;;;25.38;7.53;;;8.30;99.90;;;;;;4956636;28;20041;-88
2023/11/20 08:58:44;;;;;;;25.63;7.35;;;8.40;99.90;;;;;;4956852;28;20035;-87
2023/11/20 09:01:10;;;;;;;24.00;7.13;;;8.40;99.90;;;;;;4952335;28;20481;-87
2023/11/20 09:03:35;;;;;;;25.30;8.43;;;8.40;99.90;;;;;;4947368;28;20042;-87
2023/11/20 09:06:01;;;;;;;29.25;9.18;;;8.50;99.90;;;;;;4945693;28;20033;-87
2023/11/20 09:08:26;;;;;;;27.88;8.70;;;8.50;99.90;;;;;;4949894;28;20051;-87
2023/11/20 09:10:52;;;;;;;26.95;9.05;;;8.50;99.90;;;;;;4949307;28;20039;-87
2023/11/20 09:13:18;;;;;;;26.45;10.60;;;8.60;99.90;;;;;;4951581;28;20027;-86
2023/11/20 09:15:44;;;;;;;32.35;8.77;;;8.60;99.90;;;;;;4946339;28;20043;-86
2023/11/20 09:18:12;;;;;;;30.83;8.57;;;8.70;99.90;;;;;;4946447;28;20524;-86
2023/11/20 09:20:38;;;;;;;22.33;7.60;;;8.70;99.90;;;;;;4945825;28;20031;-87
2023/11/20 09:23:04;;;;;;;25.05;7.75;;;8.80;99.90;;;;;;4951161;28;20035;-87
2023/11/20 09:25:30;;;;;;;27.33;7.40;;;8.90;99.90;;;;;;4949186;28;20027;-87
2023/11/20 09:27:57;;;;;;;22.10;6.90;;;8.90;99.90;;;;;;4944752;28;20366;-88
2023/11/20 09:30:23;;;;;;;22.15;6.68;;;9.00;99.90;;;;;;4945767;28;20027;-88
2023/11/20 09:32:48;;;;;;;23.27;7.03;;;9.00;99.90;;;;;;4950444;28;20031;-88
2023/11/20 09:35:20;;;;;;;18.83;6.20;;;9.10;99.90;;;;;;4964888;28;20027;-88
2023/11/20 09:37:47;;;;;;;21.35;6.25;;;9.10;99.90;;;;;;4948030;28;20469;-88
2023/11/20 09:40:13;;;;;;;23.80;6.35;;;9.10;99.90;;;;;;4944919;28;20019;-88
2023/11/20 09:42:40;;;;;;;20.88;6.43;;;9.20;99.90;;;;;;4949354;28;20034;-88
2023/11/20 09:45:17;;;;;;;19.42;5.85;;;9.20;99.90;;;;;;4946328;28;20023;-88
2023/11/20 09:47:47;;;;;;;14.90;5.88;;;9.30;99.90;;;;;;4966587;28;20018;-88
2023/11/20 09:50:13;;;;;;;19.98;5.25;;;9.40;99.90;;;;;;4955277;28;20381;-88
2023/11/20 09:52:41;;;;;;;16.17;5.43;;;9.50;99.90;;;;;;4955155;28;20112;-89
2023/11/20 09:55:08;;;;;;;14.65;5.22;;;9.60;99.90;;;;;;4946269;28;20487;-88
2023/11/20 09:57:33;;;;;;;11.93;4.40;;;9.70;99.90;;;;;;4949926;28;20077;-88
2023/11/20 10:00:00;;;;;;;15.00;4.40;;;9.80;99.90;;;;;;4951036;28;20112;-89
2023/11/20 10:02:28;;;;;;;13.82;4.30;;;9.90;99.90;;;;;;4944702;28;20032;-89
2023/11/20 10:04:54;;;;;;;17.80;4.93;;;9.90;99.90;;;;;;4949565;28;20027;-89
2023/11/20 10:07:28;;;;;;;15.10;4.82;;;9.90;99.90;;;;;;4949069;28;20489;-87
2023/11/20 10:09:56;;;;;;;13.32;4.95;;;9.90;99.90;;;;;;4952228;28;20796;-87
2023/11/20 10:12:22;;;;;;;15.90;5.50;;;9.90;99.90;;;;;;4948595;28;20042;-88
2023/11/20 10:14:48;;;;;;;14.00;4.30;;;9.90;99.90;;;;;;4949332;29;20059;-88
2023/11/20 10:17:15;;;;;;;15.73;4.30;;;9.80;99.90;;;;;;4938075;28;20077;-88
2023/11/20 10:19:40;;;;;;;11.48;4.10;;;9.80;99.90;;;;;;4947406;28;20380;-88
2023/11/20 10:22:06;;;;;;;13.48;3.22;;;9.80;99.90;;;;;;4943843;28;20118;-89
2023/11/20 10:24:32;;;;;;;13.18;3.75;;;9.80;99.90;;;;;;4948929;28;20114;-88
2023/11/20 10:26:57;;;;;;;14.48;3.03;;;9.80;99.90;;;;;;4944974;29;20469;-87
2023/11/20 10:29:24;;;;;;;9.02;2.90;;;9.80;99.90;;;;;;4947392;28;20380;-87
2023/11/20 10:31:50;;;;;;;9.50;3.05;;;9.90;99.90;;;;;;4945414;28;20094;-87
2023/11/20 10:34:17;;;;;;;8.52;2.75;;;9.90;99.90;;;;;;4946309;28;20031;-88
2023/11/20 10:37:05;;;;;;;9.57;3.05;;;10.00;99.90;;;;;;4948469;28;20730;-88
2023/11/20 10:39:32;;;;;;;11.50;2.90;;;10.00;99.90;;;;;;4951077;28;20059;-88
2023/11/20 10:41:58;;;;;;;16.10;3.75;;;10.00;99.90;;;;;;4951182;28;20105;-88
2023/11/20 10:44:25;;;;;;;9.82;3.30;;;10.10;99.90;;;;;;4951111;28;20117;-88
2023/11/20 10:46:52;;;;;;;10.35;2.70;;;10.10;99.90;;;;;;4950745;28;20072;-89
2023/11/20 10:49:21;;;;;;;9.75;2.95;;;10.10;99.90;;;;;;4949296;28;20492;-88
2023/11/20 10:51:54;;;;;;;11.50;2.58;;;10.20;99.90;;;;;;4945635;28;20039;-88
2023/11/20 10:54:30;;;;;;;9.18;2.72;;;10.20;99.90;;;;;;4950600;28;20027;-88
2023/11/20 10:57:01;;;;;;;7.85;3.22;;;10.20;99.90;;;;;;4943439;29;20126;-88
2023/11/20 10:59:34;;;;;;;9.05;2.22;;;10.30;99.90;;;;;;4955153;28;20114;-88
2023/11/20 11:02:01;;;;;;;8.85;2.15;;;10.30;99.90;;;;;;4960210;28;20082;-88
2023/11/20 11:04:31;;;;;;;13.60;2.40;;;10.20;99.90;;;;;;4959320;28;20105;-88
2023/11/20 11:06:59;;;;;;;11.90;2.87;;;10.20;99.90;;;;;;4953918;28;20500;-88
2023/11/20 11:09:27;;;;;;;10.98;2.75;;;10.20;99.90;;;;;;4952188;28;20092;-88
2023/11/20 11:11:56;;;;;;;8.52;2.38;;;10.30;99.90;;;;;;4964061;28;20026;-88
2023/11/20 11:14:22;;;;;;;11.40;2.20;;;10.30;99.90;;;;;;4964506;28;20030;-88
2023/11/20 11:17:01;;;;;;;6.20;1.73;;;10.50;99.90;;;;;;4964773;28;20027;-89
2023/11/20 11:19:35;;;;;;;5.05;1.80;;;10.80;99.90;;;;;;4965094;28;20026;-88
2023/11/20 11:22:02;;;;;;;4.43;1.98;;;11.00;99.90;;;;;;4966316;28;20030;-89
2023/11/20 11:24:32;;;;;;;4.20;1.25;;;11.10;99.90;;;;;;4965871;28;20109;-88
2023/11/20 11:27:12;;;;;;;4.13;1.40;;;11.10;99.90;;;;;;4967132;28;20113;-88
2023/11/20 11:29:44;;;;;;;6.60;1.60;;;11.10;99.90;;;;;;4967252;28;20030;-89
2023/11/20 11:32:29;;;;;;;3.58;0.82;;;11.00;99.90;;;;;;4965075;28;20495;-87
2023/11/20 11:34:56;;;;;;;3.10;0.80;;;11.00;99.90;;;;;;4964785;28;20015;-88
2023/11/20 11:37:48;;;;;;;4.30;1.20;;;10.90;99.90;;;;;;4965922;28;20455;-88
2023/11/20 11:40:33;;;;;;;3.75;1.40;;;10.90;99.90;;;;;;4964496;28;20034;-89
2023/11/20 11:43:19;;;;;;;3.80;1.40;;;10.80;99.90;;;;;;4931533;28;20030;-90
2023/11/20 11:45:47;;;;;;;3.88;1.40;;;10.70;99.90;;;;;;4965554;28;20054;-88
2023/11/20 11:48:13;;;;;;;5.15;1.60;;;10.70;99.90;;;;;;4964949;28;20022;-88
2023/11/20 11:50:40;;;;;;;4.05;1.60;;;10.70;99.90;;;;;;4966740;28;20534;-87
2023/11/20 11:53:10;;;;;;;4.47;1.50;;;10.70;99.90;;;;;;4965452;28;20044;-87
2023/11/20 11:55:40;;;;;;;2.50;1.50;;;10.70;99.90;;;;;;4963857;28;20023;-88
2023/11/20 11:58:13;;;;;;;5.80;1.65;;;10.60;99.90;;;;;;4957693;28;20037;-88
2023/11/20 12:00:39;;;;;;;5.43;1.90;;;10.60;99.90;;;;;;4957470;28;20047;-88
2023/11/20 12:03:14;;;;;;;4.20;1.90;;;10.50;99.90;;;;;;4965355;28;20027;-88
2023/11/20 12:05:55;;;;;;;2.58;1.60;;;10.50;99.90;;;;;;4947642;28;20043;-87
2023/11/20 12:08:22;;;;;;;7.25;2.30;;;10.50;99.90;;;;;;4964030;28;20062;-88
2023/11/20 12:10:52;;;;;;;5.32;2.25;;;10.50;99.90;;;;;;4951308;28;20038;-88
2023/11/20 12:13:22;;;;;;;3.65;1.90;;;10.50;99.90;;;;;;4957466;28;20041;-89
2023/11/20 12:15:51;;;;;;;3.35;2.17;;;10.40;99.90;;;;;;4953194;28;20023;-87
2023/11/20 12:18:25;;;;;;;5.32;2.42;;;10.40;99.90;;;;;;4947824;28;20058;-87
2023/11/20 12:20:51;;;;;;;4.00;2.03;;;10.40;99.90;;;;;;4954844;28;20039;-87
2023/11/20 12:23:23;;;;;;;3.63;1.80;;;10.40;99.90;;;;;;4959939;28;20027;-86
2023/11/20 12:25:49;;;;;;;3.67;1.58;;;10.50;99.90;;;;;;4957100;28;20435;-87
2023/11/20 12:28:15;;;;;;;3.92;1.33;;;10.70;99.90;;;;;;4956286;28;20030;-87
2023/11/20 12:30:41;;;;;;;1.77;1.15;;;11.10;99.90;;;;;;4955521;28;20047;-86
2023/11/20 12:33:07;;;;;;;1.02;0.70;;;11.40;99.90;;;;;;4950431;28;20089;-87
2023/11/20 12:35:34;;;;;;;1.63;0.77;;;11.60;99.90;;;;;;4948485;29;20058;-87
2023/11/20 12:38:00;;;;;;;0.55;0.55;;;11.70;99.90;;;;;;4939280;28;20023;-87
2023/11/20 12:40:26;;;;;;;0.70;0.60;;;11.70;99.90;;;;;;4948829;28;20027;-87
2023/11/20 12:42:51;;;;;;;0.77;0.73;;;11.70;99.90;;;;;;4946968;28;20083;-87
2023/11/20 12:45:17;;;;;;;3.58;1.10;;;11.90;99.90;;;;;;4947360;28;20023;-87
2023/11/20 12:47:44;;;;;;;1.17;0.50;;;12.00;99.90;;;;;;4945329;28;20042;-87